Time;durP1;ratioP1;P1;durP2;ratioP2;P2;SDS_P1;SDS_P2;PMS_P1;PMS_P2;Temp;Humidity;BMP_temperature;BMP_pressure;BME280_temperature;BME280_humidity;BME280_pressure;Samples;Min_cycle;Max_cycle;Signal;HPM_P1;HPM_P2
2021/10/09 00:00:07;;;;;;;6.10;3.60;;;8.00;99.90;;;;;;5098575;28;20261;-70
2021/10/09 00:02:32;;;;;;;5.80;4.37;;;8.00;99.90;;;;;;5091306;28;20242;-69
2021/10/09 00:04:58;;;;;;;5.63;3.40;;;8.00;99.90;;;;;;5091349;28;20834;-68
2021/10/09 00:07:23;;;;;;;6.90;4.70;;;8.00;99.90;;;;;;5098602;28;20247;-69
2021/10/09 00:09:53;;;;;;;10.43;4.70;;;8.00;99.90;;;;;;5091406;28;20177;-69
2021/10/09 00:12:18;;;;;;;5.20;3.93;;;8.00;99.90;;;;;;5090888;28;20189;-69
2021/10/09 00:14:44;;;;;;;5.87;4.40;;;8.00;99.90;;;;;;5091222;28;20898;-68
2021/10/09 00:17:13;;;;;;;5.23;3.53;;;8.00;99.90;;;;;;5091167;28;20249;-68
2021/10/09 00:19:38;;;;;;;6.00;4.50;;;8.00;99.90;;;;;;5091454;28;20189;-69
2021/10/09 00:22:04;;;;;;;6.87;3.63;;;8.00;99.90;;;;;;5091490;28;20448;-69
2021/10/09 00:24:31;;;;;;;8.60;3.80;;;8.00;99.90;;;;;;5090519;28;20170;-69
2021/10/09 00:26:56;;;;;;;7.50;3.50;;;8.00;99.90;;;;;;5073452;28;20253;-69
2021/10/09 00:29:22;;;;;;;4.50;2.87;;;8.00;99.90;;;;;;5074793;28;20891;-69
2021/10/09 00:31:47;;;;;;;8.17;4.53;;;8.00;99.90;;;;;;5074659;28;20573;-69
2021/10/09 00:34:13;;;;;;;6.40;4.63;;;8.00;99.90;;;;;;5074606;28;20582;-69
2021/10/09 00:36:38;;;;;;;6.67;4.50;;;8.00;99.90;;;;;;5074396;28;20542;-69
2021/10/09 00:39:04;;;;;;;7.07;4.00;;;8.00;99.90;;;;;;5074449;28;20194;-69
2021/10/09 00:41:29;;;;;;;8.10;4.73;;;7.90;99.90;;;;;;5074309;28;20162;-69
2021/10/09 00:43:54;;;;;;;5.50;3.77;;;7.90;99.90;;;;;;5074381;28;20245;-68
2021/10/09 00:46:20;;;;;;;6.80;5.17;;;8.00;99.90;;;;;;5074378;28;20653;-69
2021/10/09 00:48:46;;;;;;;5.20;3.83;;;8.00;99.90;;;;;;5074382;28;20184;-70
2021/10/09 00:51:12;;;;;;;6.73;3.73;;;8.00;99.90;;;;;;5074056;28;20171;-69
2021/10/09 00:53:40;;;;;;;4.00;3.43;;;8.00;99.90;;;;;;5092143;28;20829;-69
2021/10/09 00:56:07;;;;;;;4.67;4.10;;;7.90;99.90;;;;;;5094215;28;20191;-69
2021/10/09 00:58:38;;;;;;;5.70;4.20;;;7.90;99.90;;;;;;5094010;28;20427;-68
2021/10/09 01:01:03;;;;;;;7.20;5.33;;;7.90;99.90;;;;;;5090484;28;20973;-68
2021/10/09 01:03:30;;;;;;;6.90;4.00;;;7.90;99.90;;;;;;5093988;28;20506;-69
2021/10/09 01:05:55;;;;;;;8.53;3.60;;;7.90;99.90;;;;;;5093913;28;20190;-68
2021/10/09 01:08:21;;;;;;;4.60;3.67;;;7.80;99.90;;;;;;5094122;28;20408;-69
2021/10/09 01:10:46;;;;;;;7.87;4.27;;;7.80;99.90;;;;;;5094016;28;20533;-69
2021/10/09 01:13:12;;;;;;;5.63;4.17;;;7.80;99.90;;;;;;5093940;28;20172;-69
2021/10/09 01:15:37;;;;;;;7.73;4.07;;;7.70;99.90;;;;;;5087301;28;20209;-69
2021/10/09 01:18:16;;;;;;;7.83;4.00;;;7.70;99.90;;;;;;5073524;28;20741;-69
2021/10/09 01:20:54;;;;;;;5.53;3.67;;;7.70;99.90;;;;;;5073847;28;20200;-70
2021/10/09 01:23:22;;;;;;;4.47;3.93;;;7.60;99.90;;;;;;5073910;28;20403;-68
2021/10/09 01:25:48;;;;;;;9.33;4.47;;;7.60;99.90;;;;;;5072137;28;20908;-69
2021/10/09 01:28:14;;;;;;;8.13;4.53;;;7.50;99.90;;;;;;5073410;28;20425;-69
2021/10/09 01:30:40;;;;;;;8.90;4.07;;;7.50;99.90;;;;;;5073526;28;20419;-68
2021/10/09 01:33:06;;;;;;;4.77;3.73;;;7.50;99.90;;;;;;5073593;28;20594;-69
2021/10/09 01:35:43;;;;;;;7.20;4.47;;;7.40;99.90;;;;;;5073196;28;20541;-69
2021/10/09 01:38:08;;;;;;;5.43;3.80;;;7.40;99.90;;;;;;5073135;28;20421;-69
2021/10/09 01:40:34;;;;;;;4.57;4.17;;;7.40;99.90;;;;;;5073212;28;20811;-69
2021/10/09 01:42:59;;;;;;;7.10;4.73;;;7.40;99.90;;;;;;5073081;28;20171;-69
2021/10/09 01:45:25;;;;;;;7.20;4.60;;;7.40;99.90;;;;;;5072962;28;20584;-71
2021/10/09 01:47:50;;;;;;;7.03;4.30;;;7.40;99.90;;;;;;5073022;28;20170;-69
2021/10/09 01:50:16;;;;;;;9.90;3.63;;;7.30;99.90;;;;;;5073030;28;20633;-69
2021/10/09 01:52:41;;;;;;;5.00;3.80;;;7.40;99.90;;;;;;5071618;28;20542;-70
2021/10/09 01:55:08;;;;;;;7.53;4.33;;;7.40;99.90;;;;;;5072855;28;20174;-68
2021/10/09 01:57:33;;;;;;;7.73;5.10;;;7.40;99.90;;;;;;5072798;28;20194;-69
2021/10/09 01:59:59;;;;;;;5.60;4.53;;;7.40;99.90;;;;;;5072839;28;20896;-69
2021/10/09 02:02:24;;;;;;;7.53;4.40;;;7.40;99.90;;;;;;5073136;28;20307;-68
2021/10/09 02:04:49;;;;;;;7.50;4.50;;;7.40;99.90;;;;;;5072601;28;20168;-71
2021/10/09 02:07:21;;;;;;;7.63;4.33;;;7.40;99.90;;;;;;5072635;28;20273;-69
2021/10/09 02:09:47;;;;;;;7.67;4.50;;;7.40;99.90;;;;;;5072912;28;20188;-68
2021/10/09 02:12:12;;;;;;;5.93;3.40;;;7.40;99.90;;;;;;5072516;28;20404;-69
2021/10/09 02:14:46;;;;;;;8.17;5.00;;;7.40;99.90;;;;;;5072514;28;20699;-70
2021/10/09 02:17:43;;;;;;;11.40;5.00;;;7.40;99.90;;;;;;5072390;28;20213;-70
2021/10/09 02:25:46;;;;;;;4.43;3.43;;;7.30;99.90;;;;;;5072300;28;20415;-69
2021/10/09 02:28:20;;;;;;;6.10;5.43;;;7.30;99.90;;;;;;5072206;28;20404;-69
2021/10/09 02:30:46;;;;;;;6.53;3.47;;;7.20;99.90;;;;;;5072491;28;20531;-69
2021/10/09 02:33:13;;;;;;;9.60;5.07;;;7.20;99.90;;;;;;5072365;28;20420;-68
2021/10/09 02:35:39;;;;;;;9.77;4.70;;;7.20;99.90;;;;;;5071986;28;20428;-69
2021/10/09 02:38:07;;;;;;;5.97;3.70;;;7.20;99.90;;;;;;5072138;28;20486;-68
2021/10/09 02:40:33;;;;;;;10.73;5.20;;;7.10;99.90;;;;;;5072023;28;20771;-70
2021/10/09 02:42:59;;;;;;;5.77;4.30;;;7.10;99.90;;;;;;5071926;28;20404;-68
2021/10/09 02:45:24;;;;;;;6.80;5.07;;;7.10;99.90;;;;;;5072049;28;20412;-68
2021/10/09 02:47:49;;;;;;;7.60;4.83;;;7.00;99.90;;;;;;5072122;28;20185;-69
2021/10/09 02:50:16;;;;;;;5.73;3.63;;;7.00;99.90;;;;;;5071560;28;20170;-69
2021/10/09 02:52:42;;;;;;;6.00;3.83;;;6.90;99.90;;;;;;5071904;28;20649;-68
2021/10/09 02:55:08;;;;;;;10.47;4.27;;;6.90;99.90;;;;;;5071648;28;20408;-69
2021/10/09 02:57:33;;;;;;;8.37;4.70;;;6.90;99.90;;;;;;5071707;28;20210;-70
2021/10/09 02:59:59;;;;;;;8.30;3.97;;;6.90;99.90;;;;;;5071842;28;20420;-68
2021/10/09 03:02:24;;;;;;;6.20;3.87;;;6.80;99.90;;;;;;5071775;28;20162;-68
2021/10/09 03:04:50;;;;;;;7.27;4.97;;;6.90;99.90;;;;;;5071720;28;20173;-70
2021/10/09 03:07:15;;;;;;;4.87;4.37;;;6.90;99.90;;;;;;5071664;28;20715;-69
2021/10/09 03:09:41;;;;;;;6.30;4.53;;;6.80;99.90;;;;;;5071737;28;20255;-68
2021/10/09 03:12:06;;;;;;;8.20;4.50;;;6.80;99.90;;;;;;5071579;28;20170;-68
2021/10/09 03:14:32;;;;;;;4.53;3.87;;;6.80;99.90;;;;;;5071595;28;20174;-70
2021/10/09 03:16:57;;;;;;;9.90;2.87;;;6.70;99.90;;;;;;5071470;28;20296;-69
2021/10/09 03:19:23;;;;;;;5.23;4.73;;;6.70;99.90;;;;;;5071703;28;20178;-69
2021/10/09 03:21:48;;;;;;;6.90;3.60;;;6.70;99.90;;;;;;5071557;28;20166;-69
2021/10/09 03:24:14;;;;;;;8.23;4.50;;;6.60;99.90;;;;;;5071217;28;20166;-70
2021/10/09 03:26:39;;;;;;;6.27;3.30;;;6.60;99.90;;;;;;5071499;28;20700;-69
2021/10/09 03:29:05;;;;;;;7.40;5.03;;;6.60;99.90;;;;;;5071393;28;20220;-69
2021/10/09 03:31:30;;;;;;;5.70;4.00;;;6.60;99.90;;;;;;5071493;28;20198;-69
2021/10/09 03:33:56;;;;;;;9.20;4.40;;;6.60;99.90;;;;;;5071352;28;20166;-69
2021/10/09 03:36:21;;;;;;;11.70;5.60;;;6.60;99.90;;;;;;5071372;28;20198;-68
2021/10/09 03:38:47;;;;;;;8.30;4.83;;;6.70;99.90;;;;;;5071476;28;20683;-69
2021/10/09 03:41:14;;;;;;;9.40;4.67;;;6.60;99.90;;;;;;5071111;28;20171;-69
2021/10/09 03:43:41;;;;;;;6.07;5.47;;;6.60;99.90;;;;;;5071332;28;20162;-69
2021/10/09 03:46:24;;;;;;;5.83;4.23;;;6.60;99.90;;;;;;5071340;28;20428;-69
2021/10/09 03:53:59;;;;;;;5.00;4.43;;;6.60;99.90;;;;;;5071220;28;20277;-68
2021/10/09 03:56:25;;;;;;;8.40;4.20;;;6.60;99.90;;;;;;5071182;28;20974;-69
2021/10/09 03:58:50;;;;;;;10.63;5.30;;;6.60;99.90;;;;;;5071341;28;20170;-68
2021/10/09 04:01:16;;;;;;;11.50;6.30;;;6.50;99.90;;;;;;5072840;28;20171;-67
2021/10/09 04:03:41;;;;;;;5.77;4.40;;;6.50;99.90;;;;;;5074879;28;20189;-68
2021/10/09 04:06:07;;;;;;;5.53;4.43;;;6.50;99.90;;;;;;5075217;28;20190;-68
2021/10/09 04:08:32;;;;;;;6.20;4.60;;;6.40;99.90;;;;;;5074930;28;20181;-68
2021/10/09 04:10:58;;;;;;;7.13;4.03;;;6.40;99.90;;;;;;5074934;28;20174;-68
2021/10/09 04:13:23;;;;;;;10.50;5.67;;;6.40;99.90;;;;;;5074751;28;20170;-68
2021/10/09 04:15:48;;;;;;;10.27;5.53;;;6.40;99.90;;;;;;5074666;28;20661;-68
2021/10/09 04:18:14;;;;;;;7.90;4.60;;;6.40;99.90;;;;;;5074652;28;20190;-68
2021/10/09 04:20:39;;;;;;;6.30;4.27;;;6.40;99.90;;;;;;5075070;28;20527;-69
2021/10/09 04:23:05;;;;;;;10.67;4.37;;;6.40;99.90;;;;;;5075056;28;20178;-68
2021/10/09 04:25:31;;;;;;;8.23;3.87;;;6.40;99.90;;;;;;5074650;28;20629;-68
2021/10/09 04:27:56;;;;;;;8.50;4.50;;;6.40;99.90;;;;;;5074630;28;20409;-68
2021/10/09 04:30:22;;;;;;;8.60;5.63;;;6.30;99.90;;;;;;5074596;28;20276;-68
2021/10/09 04:32:47;;;;;;;6.50;4.57;;;6.40;99.90;;;;;;5074658;28;20227;-68
2021/10/09 04:35:13;;;;;;;7.13;4.17;;;6.40;99.90;;;;;;5074209;28;20162;-67
2021/10/09 04:37:38;;;;;;;8.17;5.60;;;6.30;99.90;;;;;;5074327;28;20201;-68
2021/10/09 04:40:05;;;;;;;9.07;4.50;;;6.30;99.90;;;;;;5074348;28;20410;-69
2021/10/09 04:42:31;;;;;;;6.77;4.53;;;6.30;99.90;;;;;;5074291;28;20158;-68
2021/10/09 04:44:56;;;;;;;5.30;3.97;;;6.30;99.90;;;;;;5074161;28;20816;-70
2021/10/09 04:47:22;;;;;;;7.50;4.40;;;6.30;99.90;;;;;;5074309;28;20281;-68
2021/10/09 04:49:48;;;;;;;13.83;4.97;;;6.30;99.90;;;;;;5074327;28;20243;-68
2021/10/09 04:52:13;;;;;;;9.73;4.53;;;6.30;99.90;;;;;;5074193;28;20205;-68
2021/10/09 04:54:39;;;;;;;4.53;3.90;;;6.20;99.90;;;;;;5074285;28;20174;-68
2021/10/09 04:57:04;;;;;;;5.30;4.70;;;6.20;99.90;;;;;;5074004;28;20229;-68
2021/10/09 04:59:30;;;;;;;7.90;5.00;;;6.20;99.90;;;;;;5074119;28;20406;-68
2021/10/09 05:01:55;;;;;;;7.67;5.47;;;6.20;99.90;;;;;;5073833;28;20170;-67
2021/10/09 05:04:20;;;;;;;8.60;5.07;;;6.10;99.90;;;;;;5073683;28;20567;-69
2021/10/09 05:06:46;;;;;;;5.17;3.87;;;6.10;99.90;;;;;;5073782;28;20264;-68
2021/10/09 05:09:11;;;;;;;14.13;5.03;;;6.10;99.90;;;;;;5073701;28;20166;-68
2021/10/09 05:11:37;;;;;;;5.33;4.83;;;6.10;99.90;;;;;;5073655;28;20617;-69
2021/10/09 05:14:02;;;;;;;8.20;4.93;;;6.10;99.90;;;;;;5073744;28;20167;-68
2021/10/09 05:16:29;;;;;;;7.43;4.30;;;6.10;99.90;;;;;;5073764;28;20205;-68
2021/10/09 05:18:54;;;;;;;14.30;4.67;;;6.10;99.90;;;;;;5073471;28;20193;-68
2021/10/09 05:21:20;;;;;;;8.67;4.37;;;6.10;99.90;;;;;;5073497;28;20884;-69
2021/10/09 05:23:45;;;;;;;10.20;4.90;;;6.10;99.90;;;;;;5073355;28;20220;-69
2021/10/09 05:26:11;;;;;;;6.03;4.27;;;6.10;99.90;;;;;;5073479;28;20237;-69
2021/10/09 05:31:11;;;;;;;7.80;4.60;;;6.10;99.90;;;;;;5073382;28;20684;-68
2021/10/09 05:33:37;;;;;;;10.33;5.33;;;6.10;99.90;;;;;;5073234;28;20404;-68
2021/10/09 05:36:04;;;;;;;9.67;4.70;;;6.10;99.90;;;;;;5073369;28;20448;-68
2021/10/09 05:38:29;;;;;;;11.63;4.40;;;6.10;99.90;;;;;;5073157;28;20508;-69
2021/10/09 05:40:56;;;;;;;6.80;4.30;;;6.10;99.90;;;;;;5073015;28;20476;-68
2021/10/09 05:43:23;;;;;;;7.70;4.50;;;6.10;99.90;;;;;;5073063;28;20166;-69
2021/10/09 05:45:49;;;;;;;7.67;5.40;;;6.10;99.90;;;;;;5073002;28;20417;-68
2021/10/09 05:48:14;;;;;;;6.93;5.40;;;6.10;99.90;;;;;;5072898;28;20449;-68
2021/10/09 05:50:53;;;;;;;8.23;4.80;;;6.10;99.90;;;;;;5073122;28;20241;-68
2021/10/09 05:53:43;;;;;;;6.37;3.17;;;6.20;99.90;;;;;;5072835;28;20725;-69
2021/10/09 05:56:16;;;;;;;7.93;5.50;;;6.20;99.90;;;;;;5072546;28;20460;-68
2021/10/09 06:01:33;;;;;;;6.40;4.00;;;6.20;99.90;;;;;;5072866;28;20404;-68
2021/10/09 06:31:39;;;;;;;6.43;3.87;;;8.60;99.90;;;;;;5072205;28;20459;-76
2021/10/09 06:42:20;;;;;;;6.53;4.43;;;9.40;99.90;;;;;;5082086;28;20670;-70
2021/10/09 07:01:08;;;;;;;6.30;3.40;;;11.00;99.90;;;;;;5091969;28;20679;-68
2021/10/09 07:03:34;;;;;;;10.30;4.10;;;11.20;99.90;;;;;;5092030;28;20477;-67
2021/10/09 07:06:00;;;;;;;7.30;4.10;;;11.50;99.90;;;;;;5092203;28;20420;-68
2021/10/09 07:08:25;;;;;;;7.80;5.27;;;11.70;99.90;;;;;;5091526;28;20182;-68
2021/10/09 07:10:52;;;;;;;10.73;5.67;;;11.30;99.90;;;;;;5092041;28;20694;-68
2021/10/09 07:13:18;;;;;;;6.27;4.37;;;11.20;99.90;;;;;;5080871;28;20167;-67
2021/10/09 07:15:43;;;;;;;4.00;3.50;;;11.30;99.90;;;;;;5085078;28;20424;-67
2021/10/09 07:18:11;;;;;;;8.20;4.47;;;12.00;99.90;;;;;;5091497;28;20233;-68
2021/10/09 07:20:38;;;;;;;5.43;3.87;;;12.00;99.90;;;;;;5091830;28;20176;-68
2021/10/09 07:23:05;;;;;;;6.40;4.20;;;12.60;99.90;;;;;;5091667;28;20470;-68
2021/10/09 07:25:31;;;;;;;6.53;4.60;;;13.10;99.90;;;;;;5091506;28;20451;-69
2021/10/09 07:27:56;;;;;;;6.67;4.47;;;13.50;99.90;;;;;;5091571;28;20412;-67
2021/10/09 07:30:22;;;;;;;4.43;4.00;;;13.30;99.90;;;;;;5091160;28;20183;-67
2021/10/09 07:32:47;;;;;;;5.97;4.10;;;13.50;99.90;;;;;;5091044;28;20179;-68
2021/10/09 07:35:14;;;;;;;7.20;5.03;;;13.90;99.40;;;;;;5093034;28;20681;-68
2021/10/09 07:37:40;;;;;;;6.67;4.30;;;14.40;97.80;;;;;;5095509;28;20211;-69
2021/10/09 07:40:06;;;;;;;6.50;4.83;;;14.40;97.90;;;;;;5095856;28;20400;-69
2021/10/09 07:42:32;;;;;;;5.03;4.63;;;14.80;97.00;;;;;;5095881;28;20411;-69
2021/10/09 07:44:57;;;;;;;5.13;4.30;;;14.10;96.80;;;;;;5095541;28;20407;-69
2021/10/09 07:47:23;;;;;;;8.07;4.77;;;14.40;96.20;;;;;;5090026;28;20194;-68
2021/10/09 07:49:49;;;;;;;5.97;4.10;;;14.80;96.40;;;;;;5087328;28;20591;-69
2021/10/09 07:52:14;;;;;;;5.73;4.17;;;14.70;95.10;;;;;;5095269;28;20559;-68
2021/10/09 07:54:40;;;;;;;6.40;3.60;;;14.50;95.40;;;;;;5095034;28;20231;-69
2021/10/09 07:57:06;;;;;;;5.03;4.10;;;14.70;95.10;;;;;;5095242;28;20231;-69
2021/10/09 07:59:32;;;;;;;6.03;5.40;;;14.50;94.40;;;;;;5095827;28;20177;-71
2021/10/09 08:01:58;;;;;;;6.80;4.90;;;14.00;95.80;;;;;;5095256;28;20424;-69
2021/10/09 08:04:23;;;;;;;6.00;5.20;;;14.40;95.60;;;;;;5095197;28;20414;-72
2021/10/09 08:06:49;;;;;;;7.90;4.73;;;14.40;97.00;;;;;;5089133;28;20671;-69
2021/10/09 08:09:14;;;;;;;7.40;5.23;;;14.90;95.90;;;;;;5074854;28;20172;-69
2021/10/09 08:11:40;;;;;;;6.07;4.03;;;15.20;95.20;;;;;;5074904;28;20174;-69
2021/10/09 08:14:06;;;;;;;7.07;5.10;;;15.70;95.30;;;;;;5074738;28;20223;-69
2021/10/09 08:16:32;;;;;;;5.90;4.50;;;15.90;94.00;;;;;;5082404;28;20203;-69
2021/10/09 08:18:59;;;;;;;5.23;4.70;;;15.80;94.50;;;;;;5095046;28;20194;-69
2021/10/09 08:21:27;;;;;;;7.40;4.80;;;16.00;93.90;;;;;;5094966;28;20434;-70
2021/10/09 08:26:59;;;;;;;5.57;4.23;;;16.30;92.60;;;;;;5094804;28;20423;-69
2021/10/09 08:38:47;;;;;;;5.10;4.30;;;17.00;91.00;;;;;;5085654;28;20488;-69
2021/10/09 08:40:23;;;;;;;5.17;4.23;;;15.90;90.70;;;;;;5094386;28;20510;-69
2021/10/09 08:42:49;;;;;;;5.63;4.40;;;16.10;91.50;;;;;;5093605;28;20538;-69
2021/10/09 08:45:14;;;;;;;4.93;3.80;;;15.80;91.90;;;;;;5080967;28;20180;-68
2021/10/09 08:47:42;;;;;;;7.50;3.63;;;16.80;90.80;;;;;;5087830;28;20188;-69
2021/10/09 08:50:09;;;;;;;8.87;3.83;;;17.00;88.40;;;;;;5089741;28;20171;-69
2021/10/09 08:52:36;;;;;;;3.90;3.10;;;16.80;88.70;;;;;;5093599;28;20413;-68
2021/10/09 08:55:25;;;;;;;4.53;3.53;;;17.10;87.40;;;;;;5093780;28;20410;-70
2021/10/09 08:57:51;;;;;;;3.83;3.50;;;17.10;86.20;;;;;;5093418;28;20450;-68
2021/10/09 09:00:23;;;;;;;5.13;3.87;;;16.40;86.30;;;;;;5093549;28;21025;-68
2021/10/09 09:03:00;;;;;;;5.20;4.10;;;16.00;86.00;;;;;;5093699;28;20174;-68
2021/10/09 09:05:44;;;;;;;4.80;3.40;;;15.90;86.50;;;;;;5093567;28;20500;-69
2021/10/09 09:30:23;;;;;;;2.83;2.63;;;15.50;89.10;;;;;;5087161;28;20435;-69
2021/10/09 09:31:06;;;;;;;3.97;3.07;;;15.40;87.60;;;;;;5073346;28;20463;-68
2021/10/09 09:40:55;;;;;;;5.07;3.87;;;14.20;89.60;;;;;;5073281;28;20417;-68
2021/10/09 09:43:20;;;;;;;4.20;3.80;;;13.80;90.60;;;;;;5080342;28;20416;-68
2021/10/09 09:45:45;;;;;;;3.53;2.63;;;13.70;90.80;;;;;;5093211;28;20668;-68
2021/10/09 09:48:11;;;;;;;2.90;2.60;;;13.50;90.80;;;;;;5093436;28;20176;-69
2021/10/09 09:50:37;;;;;;;4.37;3.30;;;13.50;91.30;;;;;;5093183;28;20169;-68
2021/10/09 09:53:04;;;;;;;6.43;3.27;;;13.60;91.10;;;;;;5093179;28;20178;-68
2021/10/09 09:55:30;;;;;;;4.60;2.97;;;13.50;91.30;;;;;;5093176;28;20404;-68
2021/10/09 09:57:58;;;;;;;4.23;2.93;;;13.20;91.50;;;;;;5092599;28;20501;-69
2021/10/09 10:00:24;;;;;;;4.50;2.67;;;13.20;91.70;;;;;;5092532;28;20403;-68
2021/10/09 10:02:55;;;;;;;3.07;2.77;;;13.30;91.70;;;;;;5092897;28;20403;-68
2021/10/09 10:05:25;;;;;;;3.37;2.60;;;13.30;91.40;;;;;;5092942;28;20184;-68
2021/10/09 10:07:54;;;;;;;4.07;2.83;;;13.20;91.50;;;;;;5087104;28;20421;-68
2021/10/09 10:10:19;;;;;;;3.13;2.40;;;13.20;91.50;;;;;;5072646;28;20401;-68
2021/10/09 10:12:47;;;;;;;4.00;2.33;;;13.10;91.20;;;;;;5072481;28;20486;-68
2021/10/09 10:15:13;;;;;;;3.67;3.27;;;13.10;91.20;;;;;;5072572;28;20703;-68
2021/10/09 10:17:47;;;;;;;4.43;2.47;;;13.20;91.20;;;;;;5072310;28;20559;-68
2021/10/09 10:20:21;;;;;;;3.80;2.57;;;13.40;91.00;;;;;;5092054;28;20481;-68
2021/10/09 10:22:49;;;;;;;2.80;2.53;;;13.40;90.50;;;;;;5092583;28;20418;-67
2021/10/09 10:25:24;;;;;;;2.30;2.10;;;13.40;90.20;;;;;;5091897;28;20445;-67
2021/10/09 10:28:17;;;;;;;5.03;2.00;;;13.40;90.20;;;;;;5092273;28;20574;-68
2021/10/09 10:31:02;;;;;;;2.37;2.13;;;13.40;90.30;;;;;;5092177;28;20434;-68
2021/10/09 10:33:32;;;;;;;3.60;2.47;;;13.60;90.40;;;;;;5092170;28;20453;-68
2021/10/09 10:35:58;;;;;;;3.00;2.30;;;13.60;90.30;;;;;;5092480;28;20422;-68
2021/10/09 10:38:23;;;;;;;5.10;2.90;;;13.60;90.60;;;;;;5091904;28;20408;-68
2021/10/09 10:41:01;;;;;;;4.00;2.60;;;13.60;90.60;;;;;;5092344;28;20158;-73
2021/10/09 10:44:04;;;;;;;2.30;1.80;;;13.60;90.60;;;;;;5092097;28;20165;-71
2021/10/09 10:48:57;;;;;;;3.13;2.13;;;13.60;90.70;;;;;;5091828;28;20774;-71
2021/10/09 10:56:57;;;;;;;5.67;2.97;;;13.60;91.30;;;;;;5072019;28;20783;-68
2021/10/09 11:02:36;;;;;;;4.50;2.80;;;13.50;91.30;;;;;;5071822;28;20403;-69
2021/10/09 11:05:16;;;;;;;4.10;3.07;;;13.90;91.70;;;;;;5086879;28;20396;-68
2021/10/09 11:07:43;;;;;;;3.70;2.97;;;13.80;91.40;;;;;;5085261;28;20462;-69
2021/10/09 11:10:15;;;;;;;4.17;2.83;;;13.90;91.70;;;;;;5091170;28;20415;-69
2021/10/09 11:12:45;;;;;;;3.13;2.60;;;13.80;91.80;;;;;;5092074;28;20403;-68
2021/10/09 11:15:22;;;;;;;2.40;2.10;;;13.80;91.90;;;;;;5091684;28;20400;-68
2021/10/09 11:18:04;;;;;;;4.30;2.97;;;13.80;91.90;;;;;;5091598;28;20455;-68
2021/10/09 11:20:37;;;;;;;3.00;2.27;;;13.90;92.30;;;;;;5086990;28;20411;-68
2021/10/09 11:23:05;;;;;;;3.57;2.30;;;13.90;91.90;;;;;;5091798;28;20541;-68
2021/10/09 11:25:33;;;;;;;6.17;1.93;;;14.00;91.60;;;;;;5090549;28;20407;-68
2021/10/09 11:28:03;;;;;;;2.17;1.73;;;14.00;90.70;;;;;;5091769;28;20415;-68
2021/10/09 11:30:30;;;;;;;3.77;2.47;;;14.20;90.50;;;;;;5091857;28;20408;-68
2021/10/09 11:32:56;;;;;;;3.10;2.10;;;14.30;90.30;;;;;;5091693;28;20415;-69
2021/10/09 11:35:37;;;;;;;3.53;2.43;;;14.40;91.00;;;;;;5091155;28;20407;-69
2021/10/09 11:38:05;;;;;;;3.07;2.60;;;14.30;91.30;;;;;;5091784;28;20477;-68
2021/10/09 11:40:34;;;;;;;3.10;2.60;;;14.30;91.90;;;;;;5091903;28;20400;-68
2021/10/09 11:43:11;;;;;;;2.43;2.20;;;14.30;91.50;;;;;;5091801;28;20908;-69
2021/10/09 11:45:42;;;;;;;2.27;1.90;;;14.30;92.20;;;;;;5091863;28;20764;-69
2021/10/09 11:54:09;;;;;;;3.17;2.00;;;14.60;91.70;;;;;;5071767;28;20396;-69
2021/10/09 11:56:43;;;;;;;2.87;2.23;;;14.60;92.00;;;;;;5071123;28;20462;-71
2021/10/09 11:59:08;;;;;;;2.20;1.90;;;14.80;91.70;;;;;;5071769;28;20408;-69
2021/10/09 12:01:44;;;;;;;3.83;1.93;;;14.90;90.10;;;;;;5071217;28;20417;-69
2021/10/09 12:04:21;;;;;;;2.50;2.30;;;15.10;89.30;;;;;;5079055;28;20180;-69
2021/10/09 12:06:50;;;;;;;2.13;1.83;;;15.10;88.50;;;;;;5091225;28;20474;-70
2021/10/09 12:09:35;;;;;;;2.97;2.40;;;15.10;87.60;;;;;;5091225;28;20598;-69
2021/10/09 12:12:11;;;;;;;2.50;1.87;;;15.00;87.50;;;;;;5091258;28;20414;-69
2021/10/09 12:14:36;;;;;;;4.43;2.00;;;15.00;87.50;;;;;;5091225;28;20414;-71
2021/10/09 12:17:02;;;;;;;7.83;2.00;;;15.00;86.80;;;;;;5091270;28;21032;-72
2021/10/09 12:19:30;;;;;;;2.07;1.97;;;15.10;87.60;;;;;;5074595;28;20174;-69
2021/10/09 12:22:01;;;;;;;2.50;1.97;;;15.10;87.60;;;;;;5071434;28;20197;-70
2021/10/09 12:24:29;;;;;;;4.07;2.40;;;15.00;86.90;;;;;;5074707;28;20492;-69
2021/10/09 12:27:06;;;;;;;4.23;2.47;;;15.10;88.80;;;;;;5074549;28;20947;-69
2021/10/09 12:29:35;;;;;;;3.23;1.97;;;15.20;88.80;;;;;;5074718;28;20409;-70
2021/10/09 12:32:15;;;;;;;3.33;1.90;;;15.20;86.60;;;;;;5074765;28;20397;-70
2021/10/09 12:34:41;;;;;;;1.83;1.70;;;14.90;85.50;;;;;;5074964;28;20420;-69
2021/10/09 12:37:12;;;;;;;2.20;1.60;;;15.10;87.50;;;;;;5074435;28;20451;-70
2021/10/09 12:39:37;;;;;;;1.70;1.60;;;15.20;84.90;;;;;;5074679;28;20435;-69
2021/10/09 12:42:04;;;;;;;2.63;2.40;;;15.10;83.40;;;;;;5074404;28;20432;-69
2021/10/09 12:44:29;;;;;;;2.30;1.73;;;15.10;83.30;;;;;;5074335;28;20162;-68
2021/10/09 12:46:55;;;;;;;4.50;2.00;;;15.20;83.20;;;;;;5088684;28;20431;-69
2021/10/09 12:49:20;;;;;;;2.60;1.80;;;15.30;85.10;;;;;;5091391;28;20203;-69
2021/10/09 12:51:48;;;;;;;2.03;1.53;;;15.40;84.10;;;;;;5094593;28;20189;-71
2021/10/09 12:54:17;;;;;;;1.80;1.70;;;15.40;83.90;;;;;;5094799;28;20181;-69
2021/10/09 12:56:44;;;;;;;3.10;1.83;;;15.30;83.60;;;;;;5094576;28;20594;-70
2021/10/09 12:59:10;;;;;;;2.47;2.27;;;15.30;83.70;;;;;;5090212;28;20416;-69
2021/10/09 13:01:35;;;;;;;3.07;1.57;;;15.20;84.10;;;;;;5074084;28;20750;-70
2021/10/09 13:04:00;;;;;;;2.07;1.87;;;15.30;84.80;;;;;;5079484;28;20260;-70
2021/10/09 13:06:26;;;;;;;3.23;2.17;;;15.40;84.70;;;;;;5094322;28;20193;-69
2021/10/09 13:08:51;;;;;;;3.10;1.90;;;15.50;85.60;;;;;;5094112;28;20181;-69
2021/10/09 13:11:23;;;;;;;2.77;2.30;;;15.50;88.10;;;;;;5094401;28;20625;-69
2021/10/09 13:13:48;;;;;;;2.33;2.10;;;15.30;90.10;;;;;;5094033;28;20169;-68
2021/10/09 13:16:14;;;;;;;3.37;2.60;;;15.30;90.50;;;;;;5093815;28;20428;-68
2021/10/09 13:18:39;;;;;;;2.33;2.13;;;15.30;90.50;;;;;;5093887;28;20657;-70
2021/10/09 13:21:05;;;;;;;3.40;2.30;;;15.20;89.50;;;;;;5093745;28;20166;-69
2021/10/09 13:23:33;;;;;;;3.10;2.40;;;15.30;89.80;;;;;;5093839;28;20170;-68
2021/10/09 13:25:59;;;;;;;6.53;2.80;;;15.30;89.60;;;;;;5079205;28;20206;-68
2021/10/09 13:28:26;;;;;;;4.93;2.43;;;15.30;89.40;;;;;;5073482;28;20409;-70
2021/10/09 13:30:51;;;;;;;3.33;1.97;;;15.30;89.20;;;;;;5073450;28;20413;-72
2021/10/09 13:33:18;;;;;;;2.80;2.23;;;15.40;87.60;;;;;;5073147;28;20409;-69
2021/10/09 13:35:43;;;;;;;2.10;1.87;;;15.30;86.40;;;;;;5073429;28;20207;-73
2021/10/09 13:38:11;;;;;;;2.00;1.80;;;15.30;86.90;;;;;;5073444;28;20821;-70
2021/10/09 13:40:38;;;;;;;2.40;1.70;;;15.40;85.30;;;;;;5077887;28;20426;-72
2021/10/09 13:43:03;;;;;;;2.80;1.90;;;15.40;85.10;;;;;;5093016;28;20735;-72
2021/10/09 13:45:29;;;;;;;7.03;5.10;;;15.40;84.90;;;;;;5075495;28;20404;-69
2021/10/09 13:47:55;;;;;;;7.27;5.63;;;15.80;90.50;;;;;;5092536;28;20178;-71
2021/10/09 13:50:21;;;;;;;2.93;2.60;;;16.00;90.40;;;;;;5093162;28;20196;-71
2021/10/09 13:52:47;;;;;;;2.30;2.10;;;16.10;87.10;;;;;;5091907;28;20327;-70
2021/10/09 13:55:12;;;;;;;6.67;4.00;;;16.20;85.90;;;;;;5093069;28;20452;-70
2021/10/09 13:57:38;;;;;;;5.17;3.60;;;16.20;88.10;;;;;;5092605;28;20206;-73
2021/10/09 14:00:04;;;;;;;2.47;1.80;;;16.30;85.80;;;;;;5092606;28;20194;-72
2021/10/09 14:02:31;;;;;;;2.67;1.90;;;15.80;80.90;;;;;;5084829;28;20243;-69
2021/10/09 14:04:56;;;;;;;2.43;1.97;;;15.60;81.90;;;;;;5078643;28;20401;-73
2021/10/09 14:07:22;;;;;;;1.67;1.53;;;15.60;82.50;;;;;;5071002;28;20524;-69
2021/10/09 14:09:47;;;;;;;4.07;2.73;;;15.60;82.40;;;;;;5069257;28;20820;-71
2021/10/09 14:12:13;;;;;;;2.43;1.73;;;15.60;82.60;;;;;;5070341;28;20182;-71
2021/10/09 14:14:41;;;;;;;1.93;1.70;;;15.50;82.60;;;;;;5070604;28;20184;-70
2021/10/09 14:17:07;;;;;;;2.07;1.40;;;15.50;82.80;;;;;;5070365;28;20229;-70
2021/10/09 14:19:33;;;;;;;2.00;1.83;;;15.40;82.70;;;;;;5070711;28;20405;-70
2021/10/09 14:21:58;;;;;;;3.07;1.60;;;15.50;82.60;;;;;;5070567;28;20405;-69
2021/10/09 14:24:23;;;;;;;2.30;1.63;;;15.40;82.30;;;;;;5071560;28;20174;-69
2021/10/09 14:26:49;;;;;;;2.90;1.60;;;15.40;82.80;;;;;;5072231;28;20555;-69
2021/10/09 14:29:14;;;;;;;3.57;1.63;;;15.40;82.60;;;;;;5072526;28;20261;-69
2021/10/09 14:31:40;;;;;;;2.10;1.90;;;15.40;83.20;;;;;;5072430;28;20182;-72
2021/10/09 14:34:06;;;;;;;2.27;1.80;;;15.30;83.30;;;;;;5072301;28;20166;-68
2021/10/09 14:36:31;;;;;;;2.87;1.80;;;15.30;82.90;;;;;;5072444;28;20677;-69
2021/10/09 14:38:56;;;;;;;3.50;2.00;;;15.40;83.40;;;;;;5081040;28;20167;-69
2021/10/09 14:41:23;;;;;;;2.63;1.37;;;15.40;83.90;;;;;;5090124;28;20181;-70
2021/10/09 14:43:48;;;;;;;2.93;1.60;;;15.40;83.90;;;;;;5092361;28;20168;-70
2021/10/09 14:46:45;;;;;;;3.47;2.00;;;15.40;84.30;;;;;;5091450;28;20832;-69
2021/10/09 14:49:13;;;;;;;1.83;1.73;;;15.30;84.60;;;;;;5092170;28;20250;-72
2021/10/09 15:16:41;;;;;;;2.10;1.87;;;14.90;85.10;;;;;;5091909;28;20803;-69
2021/10/09 15:19:07;;;;;;;3.33;1.67;;;14.90;85.50;;;;;;5091142;28;20499;-70
2021/10/09 15:21:32;;;;;;;2.43;1.50;;;14.90;85.70;;;;;;5087448;28;20865;-70